Time;durP1;ratioP1;P1;durP2;ratioP2;P2;SDS_P1;SDS_P2;PMS_P1;PMS_P2;Temp;Humidity;BMP_temperature;BMP_pressure;BME280_temperature;BME280_humidity;BME280_pressure;Samples;Min_cycle;Max_cycle;Signal;HPM_P1;HPM_P2
2023/05/02 00:00:49;;;;;;;2.40;1.40;;;;;;;14.88;40.75;102286.89;110541;1273;22403;-47
2023/05/02 00:03:16;;;;;;;3.30;1.40;;;;;;;14.88;40.46;102283.57;110420;1270;22362;-48
2023/05/02 00:05:44;;;;;;;1.70;1.40;;;;;;;14.85;41.33;102284.31;110541;1272;22940;-47
2023/05/02 00:08:11;;;;;;;4.50;1.70;;;;;;;14.87;42.37;102288.31;110554;1276;22305;-47
2023/05/02 00:10:38;;;;;;;2.30;1.50;;;;;;;14.86;43.08;102283.77;110279;1276;22263;-48
2023/05/02 00:13:05;;;;;;;2.60;1.40;;;;;;;14.86;43.11;102289.20;110352;1275;22468;-48
2023/05/02 00:15:32;;;;;;;2.10;1.80;;;;;;;14.85;43.30;102290.44;110176;1276;22276;-48
2023/05/02 00:17:59;;;;;;;2.80;1.60;;;;;;;14.84;44.46;102293.08;110609;1269;22377;-48
2023/05/02 00:20:26;;;;;;;2.40;1.20;;;;;;;14.83;44.42;102297.09;109747;1275;1002447;-47
2023/05/02 00:22:55;;;;;;;1.80;1.40;;;;;;;14.82;44.28;102298.35;110539;1269;22143;-48
2023/05/02 00:25:22;;;;;;;2.10;1.70;;;;;;;14.81;45.11;102297.83;110547;1276;22372;-48
2023/05/02 00:27:49;;;;;;;3.30;1.60;;;;;;;14.79;45.41;102296.30;109770;1269;1002626;-47
2023/05/02 00:30:17;;;;;;;2.50;1.30;;;;;;;14.77;45.06;102297.17;110278;1275;22412;-48
2023/05/02 00:32:44;;;;;;;3.00;1.60;;;;;;;14.76;44.53;102300.70;109781;1275;1002356;-48
2023/05/02 00:35:11;;;;;;;4.30;1.60;;;;;;;14.74;44.01;102302.65;110559;1276;22130;-47
2023/05/02 00:37:38;;;;;;;4.80;1.90;;;;;;;14.72;43.56;102305.81;109765;1269;1002119;-48
2023/05/02 00:40:06;;;;;;;3.00;1.40;;;;;;;14.70;43.06;102303.23;110538;1276;22109;-48
2023/05/02 00:42:35;;;;;;;1.70;1.40;;;;;;;14.67;42.87;102302.91;110275;1276;22287;-48
2023/05/02 00:45:05;;;;;;;2.50;1.80;;;;;;;14.62;42.64;102299.48;109350;1275;1002227;-47
2023/05/02 00:47:32;;;;;;;1.70;1.40;;;;;;;14.61;42.58;102302.64;110526;1274;22207;-48
2023/05/02 00:50:00;;;;;;;1.60;1.40;;;;;;;14.61;42.53;102303.16;110570;1275;22144;-47
2023/05/02 00:52:28;;;;;;;1.80;1.50;;;;;;;14.57;42.65;102299.20;110594;1275;23072;-47
2023/05/02 00:54:55;;;;;;;2.00;1.50;;;;;;;14.57;42.71;102306.20;110223;1275;22440;-48
2023/05/02 00:57:22;;;;;;;4.20;1.60;;;;;;;14.56;42.65;102305.86;109791;1270;1006704;-47
2023/05/02 00:59:49;;;;;;;2.20;1.30;;;;;;;14.59;42.53;102309.48;110559;1276;22284;-48
2023/05/02 01:02:42;;;;;;;1.80;1.40;;;;;;;14.57;42.65;102312.30;110572;1272;22411;-47
2023/05/02 01:05:49;;;;;;;1.80;1.30;;;;;;;14.56;42.93;102311.45;110563;1267;22385;-48
2023/05/02 01:08:19;;;;;;;2.80;1.60;;;;;;;14.56;43.29;102311.10;109879;1281;22448;-48
2023/05/02 01:11:03;;;;;;;2.00;1.50;;;;;;;14.57;43.83;102308.14;108870;1285;1002946;-48
2023/05/02 01:13:33;;;;;;;1.80;1.70;;;;;;;14.59;44.38;102308.09;109695;1278;22858;-48
2023/05/02 01:16:02;;;;;;;3.20;1.70;;;;;;;14.59;44.82;102310.02;109739;1284;22205;-47
2023/05/02 01:18:34;;;;;;;1.60;1.50;;;;;;;14.58;45.44;102313.34;109095;1281;1002246;-48
2023/05/02 01:21:06;;;;;;;2.10;1.70;;;;;;;14.58;46.20;102315.78;109836;1280;23028;-47
2023/05/02 01:23:52;;;;;;;2.50;1.90;;;;;;;14.58;46.90;102317.72;109706;1284;22935;-47
2023/05/02 01:26:36;;;;;;;3.60;2.20;;;;;;;14.57;47.38;102319.64;109819;1282;22174;-48
2023/05/02 01:29:04;;;;;;;3.20;2.30;;;;;;;14.55;48.12;102320.89;109800;1285;22829;-48
2023/05/02 01:31:36;;;;;;;2.80;2.00;;;;;;;14.53;48.63;102323.02;109038;1285;1002983;-48
2023/05/02 01:34:04;;;;;;;2.40;2.00;;;;;;;14.49;48.98;102320.45;109868;1281;22301;-48
2023/05/02 01:36:31;;;;;;;5.60;2.10;;;;;;;14.46;48.98;102319.98;108926;1286;1002258;-48
2023/05/02 01:38:59;;;;;;;4.50;2.20;;;;;;;14.43;49.09;102321.41;109821;1277;22133;-48
2023/05/02 01:41:28;;;;;;;2.80;2.20;;;;;;;14.39;49.17;102316.39;109719;1282;22159;-48
2023/05/02 01:43:56;;;;;;;2.50;2.30;;;;;;;14.38;48.98;102320.09;110023;1278;23189;-47
2023/05/02 01:46:26;;;;;;;7.00;1.90;;;;;;;14.35;48.91;102315.39;110091;1279;23127;-48
2023/05/02 01:48:54;;;;;;;3.60;2.10;;;;;;;14.35;48.92;102317.31;109967;1281;22249;-48
2023/05/02 01:51:21;;;;;;;3.00;2.30;;;;;;;14.34;48.90;102317.50;109923;1278;22189;-47
2023/05/02 01:53:49;;;;;;;2.60;2.10;;;;;;;14.33;48.68;102315.58;109090;1281;1002797;-48
2023/05/02 01:56:16;;;;;;;5.00;2.20;;;;;;;14.32;48.77;102315.77;109924;1276;22292;-48
2023/05/02 01:58:43;;;;;;;3.30;2.30;;;;;;;14.28;48.57;102314.94;109877;1278;22194;-48
2023/05/02 02:01:10;;;;;;;2.40;2.20;;;;;;;14.25;48.54;102318.45;109232;1277;1002235;-48
2023/05/02 02:03:37;;;;;;;6.30;2.10;;;;;;;14.23;48.69;102322.66;109941;1280;23005;-48
2023/05/02 02:06:04;;;;;;;3.00;2.30;;;;;;;14.20;48.80;102322.17;109980;1281;22361;-48
2023/05/02 02:08:31;;;;;;;7.10;3.10;;;;;;;14.19;48.82;102323.95;109842;1281;22140;-48
2023/05/02 02:10:59;;;;;;;3.00;1.90;;;;;;;14.18;49.07;102329.38;109998;1278;22331;-48
2023/05/02 02:13:31;;;;;;;5.10;2.20;;;;;;;14.16;49.18;102326.94;110013;1279;22280;-48
2023/05/02 02:16:00;;;;;;;8.90;2.50;;;;;;;14.14;49.48;102328.71;110041;1278;22620;-48
2023/05/02 02:18:27;;;;;;;3.10;2.10;;;;;;;14.13;49.63;102328.73;110307;1270;22452;-48
2023/05/02 02:20:54;;;;;;;2.40;2.10;;;;;;;14.14;49.68;102327.14;109912;1279;22159;-48
2023/05/02 02:23:22;;;;;;;6.90;2.00;;;;;;;14.13;49.70;102334.65;110050;1273;22187;-48
2023/05/02 02:25:49;;;;;;;2.80;1.90;;;;;;;14.13;49.44;102334.83;110121;1278;22161;-48
2023/05/02 02:28:16;;;;;;;2.60;1.90;;;;;;;14.13;49.46;102336.40;110118;1273;22181;-48
2023/05/02 02:30:43;;;;;;;2.80;2.20;;;;;;;14.12;49.41;102337.27;110064;1278;22369;-48
2023/05/02 02:33:10;;;;;;;3.00;2.40;;;;;;;14.13;49.43;102340.94;110048;1279;22212;-48
2023/05/02 02:35:41;;;;;;;4.20;1.90;;;;;;;14.12;49.46;102342.70;110269;1272;23234;-48
2023/05/02 02:38:31;;;;;;;3.20;2.10;;;;;;;14.10;49.44;102340.27;110066;1278;22160;-48
2023/05/02 02:41:26;;;;;;;2.60;1.90;;;;;;;14.07;49.74;102345.38;109193;1278;1002089;-48
2023/05/02 02:44:03;;;;;;;2.80;2.50;;;;;;;14.04;50.02;102349.77;110191;1273;22278;-48
2023/05/02 02:46:38;;;;;;;3.00;2.70;;;;;;;14.02;50.24;102351.17;110275;1272;22425;-48
2023/05/02 02:49:14;;;;;;;3.00;2.20;;;;;;;14.02;50.40;102355.54;110272;1272;22151;-48
2023/05/02 02:51:47;;;;;;;3.70;2.40;;;;;;;14.01;50.42;102357.66;110224;1272;22406;-47
2023/05/02 02:54:20;;;;;;;2.30;1.90;;;;;;;14.00;50.62;102357.66;110462;1270;22176;-48
2023/05/02 02:57:25;;;;;;;8.10;3.90;;;;;;;13.97;50.80;102356.46;110171;1275;22904;-48
2023/05/02 02:59:58;;;;;;;5.80;2.90;;;;;;;13.97;50.80;102358.39;109934;1276;22383;-48
2023/05/02 03:02:28;;;;;;;4.60;2.20;;;;;;;13.97;50.84;102358.39;109178;1282;1006052;-48
2023/05/02 03:04:55;;;;;;;3.20;1.70;;;;;;;13.96;50.69;102360.14;109980;1276;22387;-48
2023/05/02 03:07:22;;;;;;;3.80;2.20;;;;;;;13.95;50.56;102363.11;109871;1282;22227;-49
2023/05/02 03:09:49;;;;;;;3.00;2.00;;;;;;;13.95;50.55;102368.00;109928;1276;22280;-48
2023/05/02 03:12:20;;;;;;;3.00;2.00;;;;;;;13.95;50.35;102372.19;109871;1277;23268;-48
2023/05/02 03:14:47;;;;;;;4.80;1.80;;;;;;;13.93;50.30;102378.83;109828;1279;22328;-48
2023/05/02 03:17:14;;;;;;;3.20;2.20;;;;;;;13.93;50.08;102379.88;109853;1280;22167;-48
2023/05/02 03:19:41;;;;;;;4.60;2.30;;;;;;;13.93;49.83;102379.19;109967;1275;22285;-48
2023/05/02 03:22:08;;;;;;;1.90;1.70;;;;;;;13.93;49.72;102381.61;109824;1275;22468;-48
2023/05/02 03:24:36;;;;;;;2.90;2.10;;;;;;;13.94;49.61;102383.19;109898;1279;22835;-48
2023/05/02 03:27:03;;;;;;;2.30;2.00;;;;;;;13.97;49.58;102384.73;109919;1276;22456;-48
2023/05/02 03:29:33;;;;;;;2.40;1.70;;;;;;;13.99;49.78;102389.78;109972;1276;22311;-48
2023/05/02 03:32:00;;;;;;;3.70;1.80;;;;;;;14.04;49.60;102396.01;109759;1275;22443;-48
2023/05/02 03:34:28;;;;;;;2.50;1.70;;;;;;;14.10;49.43;102395.94;109872;1278;22595;-49
2023/05/02 03:36:55;;;;;;;3.00;1.90;;;;;;;14.19;49.07;102395.84;110158;1272;22793;-48
2023/05/02 03:39:22;;;;;;;2.20;1.80;;;;;;;14.33;48.47;102398.70;110468;1269;22409;-48
2023/05/02 03:41:49;;;;;;;3.50;1.90;;;;;;;14.44;47.99;102399.97;110420;1272;22267;-48
2023/05/02 03:44:17;;;;;;;2.40;2.00;;;;;;;14.49;47.37;102401.65;110250;1267;22149;-48
2023/05/02 03:46:44;;;;;;;2.00;1.60;;;;;;;14.51;46.89;102404.95;110510;1275;22859;-48
2023/05/02 03:49:12;;;;;;;3.20;2.00;;;;;;;14.48;46.71;102406.39;110473;1268;22119;-48
2023/05/02 03:51:40;;;;;;;2.30;1.70;;;;;;;14.47;46.58;102407.09;109509;1273;1002583;-48
2023/05/02 03:54:08;;;;;;;2.30;1.80;;;;;;;14.48;46.46;102411.63;110024;1277;22910;-48
2023/05/02 03:56:38;;;;;;;1.90;1.50;;;;;;;14.47;46.29;102414.27;110156;1270;22373;-48
2023/05/02 03:59:14;;;;;;;2.00;1.70;;;;;;;14.45;46.62;102417.42;110251;1277;23131;-48
2023/05/02 04:01:41;;;;;;;2.50;1.70;;;;;;;14.42;46.61;102419.89;110122;1270;22153;-48
2023/05/02 04:04:10;;;;;;;3.60;2.00;;;;;;;14.40;46.67;102421.66;110111;1270;22337;-48
2023/05/02 04:06:44;;;;;;;2.60;2.10;;;;;;;14.39;46.69;102419.93;110225;1273;22336;-48
2023/05/02 04:09:11;;;;;;;4.60;1.90;;;;;;;14.38;46.93;102419.77;110034;1270;22240;-48
2023/05/02 04:11:46;;;;;;;2.50;2.10;;;;;;;14.37;46.97;102416.63;109376;1277;1002745;-48
2023/05/02 04:14:13;;;;;;;2.70;1.60;;;;;;;14.36;47.37;102418.91;110133;1277;23093;-48
2023/05/02 04:16:47;;;;;;;3.50;2.00;;;;;;;14.36;47.28;102418.20;110124;1273;22171;-48
2023/05/02 04:19:17;;;;;;;2.40;2.20;;;;;;;14.36;47.24;102422.23;110217;1270;22236;-48
2023/05/02 04:21:44;;;;;;;5.50;2.20;;;;;;;14.37;47.12;102424.84;110260;1276;22258;-48
2023/05/02 04:24:12;;;;;;;2.40;1.90;;;;;;;14.38;46.94;102430.77;110431;1272;22291;-48
2023/05/02 04:26:40;;;;;;;4.70;2.00;;;;;;;14.40;46.68;102432.15;110532;1276;22123;-48
2023/05/02 04:29:10;;;;;;;4.30;1.80;;;;;;;14.40;46.98;102430.05;110459;1270;22289;-48
2023/05/02 04:31:37;;;;;;;2.60;1.90;;;;;;;14.39;47.26;102429.36;110107;1275;22871;-47
2023/05/02 04:34:05;;;;;;;3.40;2.30;;;;;;;14.38;47.23;102430.08;110425;1267;22435;-48
2023/05/02 04:36:39;;;;;;;4.00;1.90;;;;;;;14.37;47.45;102429.90;110407;1273;22395;-48
2023/05/02 04:39:08;;;;;;;2.10;1.90;;;;;;;14.38;47.67;102436.35;109536;1269;1002121;-48
2023/05/02 04:41:39;;;;;;;3.20;1.90;;;;;;;14.41;47.71;102442.95;110455;1267;22340;-49
2023/05/02 04:44:06;;;;;;;2.00;1.80;;;;;;;14.42;47.61;102447.83;110045;1275;22354;-48
2023/05/02 04:46:34;;;;;;;2.30;1.90;;;;;;;14.42;47.87;102449.76;110527;1275;22268;-47
2023/05/02 04:49:01;;;;;;;2.20;1.80;;;;;;;14.44;47.94;102451.64;109751;1269;1003043;-47
2023/05/02 04:51:30;;;;;;;2.40;1.80;;;;;;;14.47;47.99;102451.44;110549;1272;22381;-48
2023/05/02 04:53:57;;;;;;;2.90;1.70;;;;;;;14.51;48.00;102451.23;110123;1273;22374;-48
2023/05/02 04:56:25;;;;;;;2.10;1.80;;;;;;;14.57;47.83;102457.08;110500;1269;22306;-48
2023/05/02 04:58:53;;;;;;;2.20;2.00;;;;;;;14.59;47.59;102456.01;110437;1269;22390;-48
2023/05/02 05:01:22;;;;;;;2.50;1.80;;;;;;;14.64;47.79;102462.76;110481;1267;23111;-47
2023/05/02 05:03:50;;;;;;;2.30;2.10;;;;;;;14.70;47.84;102466.02;110494;1269;22272;-48
2023/05/02 05:06:18;;;;;;;1.70;1.40;;;;;;;14.74;47.65;102466.68;110395;1275;22795;-49
2023/05/02 05:08:45;;;;;;;2.00;1.80;;;;;;;14.79;47.30;102468.71;110360;1275;22082;-48
2023/05/02 05:11:14;;;;;;;2.10;1.70;;;;;;;14.83;47.37;102471.29;110393;1270;22147;-48
2023/05/02 05:13:41;;;;;;;2.80;1.90;;;;;;;14.89;48.17;102474.19;110466;1269;22268;-48
2023/05/02 05:16:10;;;;;;;2.30;1.50;;;;;;;14.96;48.42;102479.16;109647;1275;1002421;-48
2023/05/02 05:18:41;;;;;;;2.40;1.60;;;;;;;15.02;48.15;102478.57;110196;1275;22140;-49
2023/05/02 05:21:10;;;;;;;1.60;1.50;;;;;;;15.08;47.65;102479.00;109663;1270;1002150;-48
2023/05/02 05:23:38;;;;;;;2.10;1.60;;;;;;;15.14;47.20;102479.29;110481;1268;22339;-48
2023/05/02 05:26:10;;;;;;;3.20;1.70;;;;;;;15.19;47.23;102486.52;110442;1269;22805;-48
2023/05/02 05:28:38;;;;;;;2.80;1.70;;;;;;;15.27;47.09;102491.86;110519;1275;22353;-48
2023/05/02 05:31:10;;;;;;;2.20;1.60;;;;;;;15.46;46.60;102496.34;110391;1267;22767;-49
2023/05/02 05:33:37;;;;;;;;;;;;;;;15.85;46.11;102496.10;110530;1269;22400;-49
2023/05/02 05:36:10;;;;;;;1.50;1.40;;;;;;;16.40;45.23;102496.40;110410;1269;22344;-48
2023/05/02 05:38:37;;;;;;;3.60;1.80;;;;;;;16.93;43.90;102496.60;109571;1272;1002616;-49
2023/05/02 05:41:06;;;;;;;2.00;1.80;;;;;;;17.41;42.87;102500.65;110077;1275;22932;-48
2023/05/02 05:43:35;;;;;;;1.60;1.50;;;;;;;17.85;41.89;102503.67;110420;1270;22376;-48
2023/05/02 05:46:04;;;;;;;3.40;1.80;;;;;;;18.36;41.07;102500.27;110394;1275;22163;-49
2023/05/02 05:48:33;;;;;;;5.40;1.70;;;;;;;18.93;40.00;102498.34;110409;1275;22448;-47
2023/05/02 05:51:04;;;;;;;1.90;1.40;;;;;;;19.49;38.91;102497.39;110218;1271;22185;-48
2023/05/02 05:53:31;;;;;;;4.30;1.70;;;;;;;20.16;37.73;102494.48;109919;1271;22822;-48
2023/05/02 05:56:10;;;;;;;2.50;1.60;;;;;;;20.85;36.69;102495.90;110069;1270;22994;-48
2023/05/02 05:58:40;;;;;;;2.00;1.50;;;;;;;21.51;35.95;102500.29;110124;1270;22452;-48
2023/05/02 06:01:07;;;;;;;2.40;1.90;;;;;;;22.11;34.98;102505.40;110075;1279;22155;-49
2023/05/02 06:03:35;;;;;;;2.70;1.60;;;;;;;22.70;34.28;102500.73;110119;1271;22796;-49
2023/05/02 06:06:02;;;;;;;2.70;1.60;;;;;;;23.22;33.56;102501.70;110070;1275;22381;-49
2023/05/02 06:08:29;;;;;;;3.60;1.90;;;;;;;23.53;32.76;102503.42;110118;1272;22190;-49
2023/05/02 06:10:56;;;;;;;2.50;1.40;;;;;;;23.67;32.68;102506.45;110132;1273;22362;-49
2023/05/02 06:13:23;;;;;;;1.90;1.70;;;;;;;23.81;32.65;102507.88;110160;1279;22428;-49
2023/05/02 06:15:50;;;;;;;1.60;1.50;;;;;;;23.90;32.71;102512.03;110037;1275;23065;-48
2023/05/02 06:18:18;;;;;;;1.60;1.40;;;;;;;23.91;33.40;102511.08;110098;1277;22305;-46
2023/05/02 06:20:45;;;;;;;1.60;1.50;;;;;;;23.97;33.32;102508.13;110222;1278;22371;-48
2023/05/02 06:23:12;;;;;;;3.50;1.70;;;;;;;24.02;33.42;102514.96;110175;1272;23107;-46
2023/05/02 06:25:39;;;;;;;2.90;1.70;;;;;;;23.90;33.23;102514.65;110222;1275;22327;-48
2023/05/02 06:28:06;;;;;;;3.10;1.40;;;;;;;23.69;33.62;102512.73;110477;1268;23315;-46
2023/05/02 06:30:33;;;;;;;2.90;1.70;;;;;;;23.53;33.91;102514.92;110480;1267;22979;-48
2023/05/02 06:33:02;;;;;;;1.60;1.50;;;;;;;23.48;33.97;102518.37;110478;1275;22989;-47
2023/05/02 06:35:30;;;;;;;3.80;1.50;;;;;;;23.43;31.24;102517.50;110522;1268;22109;-49
2023/05/02 06:37:56;;;;;;;2.80;1.80;;;;;;;23.34;30.03;102517.05;110483;1268;22308;-49
2023/05/02 06:40:24;;;;;;;3.30;1.60;;;;;;;23.14;30.10;102514.83;110098;1275;22846;-48
2023/05/02 06:42:51;;;;;;;1.40;1.30;;;;;;;23.00;30.32;102520.27;110489;1269;22111;-49
2023/05/02 06:45:18;;;;;;;4.20;1.60;;;;;;;22.92;30.47;102519.90;110185;1275;22139;-48
2023/05/02 06:47:45;;;;;;;1.80;1.50;;;;;;;22.80;29.81;102522.93;110405;1268;22143;-48
2023/05/02 06:50:12;;;;;;;2.60;1.80;;;;;;;22.53;30.01;102527.29;110463;1267;22322;-48
2023/05/02 06:52:39;;;;;;;2.10;1.40;;;;;;;22.36;31.39;102531.92;106405;1275;1006440;-48
2023/05/02 06:55:06;;;;;;;4.00;1.90;;;;;;;22.41;31.58;102535.57;110561;1269;23004;-48
2023/05/02 06:57:33;;;;;;;2.80;1.90;;;;;;;22.47;31.49;102537.08;110457;1269;22305;-49
2023/05/02 07:00:00;;;;;;;2.40;1.90;;;;;;;22.46;31.41;102542.79;110505;1269;22370;-49
2023/05/02 07:02:28;;;;;;;2.70;1.60;;;;;;;22.37;31.41;102542.09;110528;1270;22357;-48
2023/05/02 07:04:55;;;;;;;2.10;1.70;;;;;;;22.32;31.72;102543.55;110436;1269;22354;-48
2023/05/02 07:07:22;;;;;;;1.50;1.40;;;;;;;22.36;31.96;102544.83;110440;1273;22101;-48
2023/05/02 07:09:49;;;;;;;2.00;1.70;;;;;;;22.33;31.39;102546.16;110429;1269;22129;-49
2023/05/02 07:12:16;;;;;;;3.50;1.50;;;;;;;22.06;31.91;102551.59;110501;1275;22342;-49
2023/05/02 07:14:45;;;;;;;2.60;1.70;;;;;;;21.89;32.92;102558.67;110310;1269;22414;-49
2023/05/02 07:17:12;;;;;;;2.60;1.90;;;;;;;22.02;33.22;102563.75;110507;1276;22284;-48
2023/05/02 07:19:39;;;;;;;2.80;1.90;;;;;;;22.31;33.14;102565.89;110533;1269;22288;-49
2023/05/02 07:22:09;;;;;;;2.00;1.30;;;;;;;22.63;32.57;102563.11;110597;1269;22374;-48
2023/05/02 07:24:40;;;;;;;10.50;1.90;;;;;;;22.90;32.38;102558.25;110520;1269;22410;-49
2023/05/02 07:27:08;;;;;;;4.60;1.40;;;;;;;23.10;32.20;102556.09;110178;1276;22199;-49
2023/05/02 07:29:35;;;;;;;4.50;1.90;;;;;;;23.13;31.90;102557.15;110530;1269;22136;-48
2023/05/02 07:32:03;;;;;;;4.10;2.00;;;;;;;22.74;32.18;102559.48;110454;1275;22087;-49
2023/05/02 07:34:30;;;;;;;1.60;1.50;;;;;;;22.37;33.34;102565.29;110473;1275;22551;-49
2023/05/02 07:36:57;;;;;;;2.60;1.70;;;;;;;22.17;34.00;102568.60;110504;1269;22224;-48
2023/05/02 07:39:24;;;;;;;2.00;1.40;;;;;;;22.03;34.25;102568.13;110495;1269;22874;-48
2023/05/02 07:41:52;;;;;;;4.00;2.10;;;;;;;21.77;34.93;102570.22;110566;1267;22129;-49
2023/05/02 07:44:20;;;;;;;2.30;1.60;;;;;;;21.52;35.29;102569.65;110493;1267;22463;-48
2023/05/02 07:46:47;;;;;;;3.00;1.60;;;;;;;21.32;35.90;102568.99;110400;1270;22385;-48
2023/05/02 07:49:14;;;;;;;2.40;1.90;;;;;;;21.18;36.07;102571.48;110450;1275;22946;-49
2023/05/02 07:53:57;;;;;;;3.20;2.50;;;;;;;20.65;36.62;102575.81;104908;1282;558995;-48
2023/05/02 07:56:24;;;;;;;6.00;2.60;;;;;;;20.74;36.73;102584.86;106697;1278;24234;-47
2023/05/02 07:58:51;;;;;;;4.40;1.80;;;;;;;20.69;36.42;102583.45;107015;1276;26615;-47
2023/05/02 08:01:19;;;;;;;1.90;1.80;;;;;;;20.63;36.56;102585.05;106534;1279;25350;-49
2023/05/02 08:03:47;;;;;;;1.90;1.70;;;;;;;20.60;37.53;102587.47;106034;1280;22570;-48
2023/05/02 08:06:14;;;;;;;6.40;2.20;;;;;;;20.56;37.55;102585.48;106735;1276;321290;-47
2023/05/02 08:08:42;;;;;;;4.70;2.00;;;;;;;20.50;37.86;102582.51;106799;1271;25485;-47
2023/05/02 08:11:09;;;;;;;4.10;1.90;;;;;;;20.46;38.11;102587.06;107138;1271;23359;-48
2023/05/02 08:13:36;;;;;;;2.10;1.80;;;;;;;20.47;37.94;102587.02;106497;1278;25345;-48
2023/05/02 08:16:03;;;;;;;3.40;1.90;;;;;;;20.47;38.11;102587.56;106400;1261;25513;-47
2023/05/02 08:18:31;;;;;;;2.20;2.00;;;;;;;20.46;38.87;102589.00;106549;1271;23298;-47
2023/05/02 08:20:58;;;;;;;2.80;1.80;;;;;;;20.47;38.77;102592.33;106644;1269;22533;-47
2023/05/02 08:23:26;;;;;;;2.70;1.90;;;;;;;20.43;38.68;102599.67;106509;1272;25444;-47
2023/05/02 08:25:53;;;;;;;2.80;2.10;;;;;;;20.41;38.72;102597.13;106632;1272;25353;-47
2023/05/02 08:28:20;;;;;;;3.20;2.10;;;;;;;20.39;39.01;102592.94;106772;1273;22534;-47
2023/05/02 08:30:47;;;;;;;3.60;2.30;;;;;;;20.37;38.85;102591.23;107059;1272;25407;-47
2023/05/02 08:33:15;;;;;;;2.90;1.60;;;;;;;20.36;38.81;102594.09;107256;1263;25392;-47
2023/05/02 08:35:42;;;;;;;2.00;1.80;;;;;;;20.36;39.01;102600.11;107027;1272;25373;-48
2023/05/02 08:38:10;;;;;;;2.60;1.80;;;;;;;20.32;39.28;102600.92;107513;1260;25332;-48
2023/05/02 08:40:37;;;;;;;7.10;2.60;;;;;;;20.27;39.12;102599.86;107232;1260;23411;-48
2023/05/02 08:43:12;;;;;;;2.80;2.20;;;;;;;20.20;39.42;102595.50;107003;1260;24253;-48
2023/05/02 08:45:41;;;;;;;3.50;2.40;;;;;;;20.17;39.26;102597.84;107008;1271;24260;-47
2023/05/02 08:48:09;;;;;;;2.90;2.10;;;;;;;20.18;39.31;102598.55;107012;1266;25321;-48
2023/05/02 08:50:42;;;;;;;3.90;2.30;;;;;;;20.17;39.50;102600.33;107132;1269;22534;-48
2023/05/02 08:53:10;;;;;;;1.80;1.70;;;;;;;20.14;39.98;102601.86;107548;1267;25397;-47
2023/05/02 08:55:40;;;;;;;2.80;1.80;;;;;;;20.09;40.14;102602.55;106939;1270;25330;-47
2023/05/02 08:58:08;;;;;;;5.40;2.00;;;;;;;20.06;40.88;102600.00;107005;1271;22520;-47
2023/05/02 09:00:42;;;;;;;4.10;1.90;;;;;;;20.05;41.08;102601.08;107364;1266;22534;-47
2023/05/02 09:03:27;;;;;;;3.00;2.10;;;;;;;20.08;40.93;102598.89;106947;1269;22651;-48
2023/05/02 09:05:59;;;;;;;3.10;1.90;;;;;;;20.07;40.61;102596.41;107403;1268;24204;-47
2023/05/02 09:08:26;;;;;;;4.60;2.20;;;;;;;20.06;40.44;102595.06;107276;1268;22526;-48
2023/05/02 09:10:53;;;;;;;3.20;2.30;;;;;;;20.03;40.31;102591.45;107170;1269;22530;-48
2023/05/02 09:13:30;;;;;;;4.00;1.90;;;;;;;19.94;40.50;102594.93;106901;1271;25397;-47
2023/05/02 09:16:08;;;;;;;3.90;2.00;;;;;;;19.88;41.13;102599.00;106929;1270;24213;-48
2023/05/02 09:18:38;;;;;;;4.80;2.30;;;;;;;19.89;41.52;102602.83;106818;1266;22638;-48
2023/05/02 09:21:09;;;;;;;3.90;2.10;;;;;;;19.95;41.26;102600.16;106762;1270;25431;-48
2023/05/02 09:23:49;;;;;;;4.60;2.10;;;;;;;20.01;41.33;102599.10;106902;1267;22514;-47
2023/05/02 09:26:25;;;;;;;5.50;2.80;;;;;;;20.05;41.12;102597.73;106774;1274;22610;-47
2023/05/02 09:28:53;;;;;;;4.10;2.30;;;;;;;20.06;41.46;102599.98;106805;1270;25325;-48
2023/05/02 09:31:24;;;;;;;2.80;2.10;;;;;;;20.06;41.57;102600.35;106828;1272;22612;-47
2023/05/02 09:34:12;;;;;;;2.60;1.90;;;;;;;20.07;41.61;102599.98;106902;1269;25332;-47
2023/05/02 09:36:40;;;;;;;3.00;1.90;;;;;;;20.08;42.08;102598.70;106873;1272;25478;-47
2023/05/02 09:39:10;;;;;;;2.20;2.00;;;;;;;20.13;42.11;102597.83;107236;1260;22517;-48
2023/05/02 09:41:41;;;;;;;3.70;2.00;;;;;;;20.17;41.99;102601.23;107131;1260;25475;-47
2023/05/02 09:44:09;;;;;;;;;;;;;;;20.19;42.05;102602.05;107206;1272;23466;-47
2023/05/02 09:46:40;;;;;;;2.70;1.90;;;;;;;20.17;42.10;102604.06;107170;1269;22656;-47
2023/05/02 09:49:11;;;;;;;;;;;;;;;20.11;42.03;102601.07;107080;1263;22483;-48
2023/05/02 09:51:38;;;;;;;3.10;2.20;;;;;;;20.08;42.37;102602.56;106886;1270;25375;-48
2023/05/02 09:54:05;;;;;;;5.90;2.50;;;;;;;20.05;42.29;102599.85;107184;1269;25355;-48
2023/05/02 09:56:51;;;;;;;3.90;2.00;;;;;;;20.06;42.20;102601.23;107103;1267;25470;-48
2023/05/02 09:59:18;;;;;;;3.50;2.50;;;;;;;20.08;42.55;102595.53;107035;1269;22523;-47
2023/05/02 10:01:45;;;;;;;4.10;2.30;;;;;;;20.12;42.48;102599.77;106920;1263;22629;-49
2023/05/02 10:04:15;;;;;;;4.20;2.40;;;;;;;20.14;42.39;102594.97;106823;1263;25871;-47
2023/05/02 10:06:43;;;;;;;4.10;3.10;;;;;;;20.14;42.57;102598.85;106880;1251;22591;-47
2023/05/02 10:09:13;;;;;;;3.30;2.60;;;;;;;20.13;42.44;102599.25;106931;1272;23331;-47
2023/05/02 10:11:48;;;;;;;4.00;2.40;;;;;;;20.14;42.73;102595.86;107128;1260;25568;-47
2023/05/02 10:14:15;;;;;;;4.00;2.20;;;;;;;20.15;42.53;102599.16;107086;1271;22611;-47
2023/05/02 10:17:12;;;;;;;6.30;2.40;;;;;;;20.20;42.80;102597.79;106875;1270;22638;-47
2023/05/02 10:20:05;;;;;;;2.40;2.20;;;;;;;20.25;42.50;102597.29;106921;1269;24199;-48
2023/05/02 10:22:33;;;;;;;2.60;2.30;;;;;;;20.29;42.32;102602.98;107163;1270;25350;-48
2023/05/02 10:25:01;;;;;;;2.70;2.50;;;;;;;20.30;42.02;102603.98;107246;1271;22549;-47
2023/05/02 10:27:30;;;;;;;3.70;2.70;;;;;;;20.30;41.74;102602.61;107430;1268;25391;-48
2023/05/02 10:29:58;;;;;;;3.40;2.50;;;;;;;20.25;41.50;102608.05;107304;1270;23890;-48
2023/05/02 10:32:28;;;;;;;3.30;2.40;;;;;;;20.19;41.65;102609.10;106814;1267;25408;-48
2023/05/02 10:34:56;;;;;;;3.90;3.00;;;;;;;20.16;41.50;102611.83;107095;1267;25305;-48
2023/05/02 10:37:24;;;;;;;3.10;2.50;;;;;;;20.10;41.68;102612.20;106847;1266;24295;-48
2023/05/02 10:39:51;;;;;;;3.50;3.20;;;;;;;20.05;41.73;102609.91;107073;1273;25277;-48
2023/05/02 10:42:19;;;;;;;3.20;2.70;;;;;;;20.00;41.42;102612.88;107223;1270;23889;-48
2023/05/02 10:44:46;;;;;;;5.90;3.00;;;;;;;19.97;41.80;102613.48;106981;1275;25378;-48
2023/05/02 10:47:20;;;;;;;3.20;2.90;;;;;;;19.92;41.97;102612.23;107014;1273;25402;-48
2023/05/02 10:49:53;;;;;;;3.40;2.80;;;;;;;19.87;42.16;102611.17;106741;1270;24448;-48
2023/05/02 10:52:31;;;;;;;3.10;2.80;;;;;;;19.84;42.55;102612.33;106869;1261;23109;-48
2023/05/02 10:55:34;;;;;;;3.60;2.90;;;;;;;19.83;42.98;102613.77;107077;1251;23860;-48
2023/05/02 10:58:03;;;;;;;3.30;3.00;;;;;;;19.82;42.72;102613.98;106034;1275;25406;-48
2023/05/02 11:00:32;;;;;;;4.60;3.50;;;;;;;19.79;43.06;102614.77;106586;1275;24223;-46
2023/05/02 11:02:59;;;;;;;5.10;3.20;;;;;;;19.77;43.13;102619.41;106241;1278;24204;-49
2023/05/02 11:05:27;;;;;;;4.20;3.50;;;;;;;19.71;43.33;102619.44;106185;1281;25322;-48
2023/05/02 11:08:16;;;;;;;3.30;3.00;;;;;;;19.63;43.51;102619.47;106357;1269;23458;-48
2023/05/02 11:10:46;;;;;;;6.20;3.30;;;;;;;19.56;43.99;102620.05;106561;1269;25236;-48
2023/05/02 11:13:14;;;;;;;4.50;3.50;;;;;;;19.52;44.13;102619.13;106352;1276;25476;-48
2023/05/02 11:15:41;;;;;;;5.40;3.40;;;;;;;19.44;44.21;102618.63;106346;1283;22545;-47
2023/05/02 11:18:12;;;;;;;4.40;3.60;;;;;;;19.35;44.36;102618.71;106356;1276;25379;-47
2023/05/02 11:20:40;;;;;;;4.20;3.60;;;;;;;19.29;44.85;102617.29;106166;1275;22571;-47
2023/05/02 11:23:28;;;;;;;4.20;3.80;;;;;;;19.23;44.84;102614.82;106247;1277;25353;-47
2023/05/02 11:25:56;;;;;;;4.90;3.50;;;;;;;19.18;45.36;102613.19;106890;1276;25359;-47
2023/05/02 11:28:43;;;;;;;3.70;3.40;;;;;;;19.16;45.85;102609.02;106403;1282;22536;-47
2023/05/02 11:31:26;;;;;;;4.60;3.30;;;;;;;19.20;45.96;102607.15;106484;1272;25491;-47